createdAt,value
2022-08-22T00:00:04.325Z,57.46
2022-08-22T00:01:04.316Z,57.36
2022-08-22T00:02:04.362Z,57.26
2022-08-22T00:02:41.798Z,59.62
2022-08-22T00:02:43.289Z,59.03
2022-08-22T00:02:44.176Z,58.45
2022-08-22T00:02:53.247Z,58.53
2022-08-22T00:02:57.557Z,57.86
2022-08-22T00:03:03.564Z,59.05
2022-08-22T00:04:05.287Z,57.17
2022-08-22T00:05:04.290Z,56.99
2022-08-22T00:06:04.269Z,57.09
2022-08-22T00:07:04.280Z,56.99
2022-08-22T00:08:04.297Z,57.29
2022-08-22T00:09:04.226Z,56.99
2022-08-22T00:10:04.245Z,57.19
2022-08-22T00:11:04.219Z,56.99
2022-08-22T00:12:04.195Z,56.99
2022-08-22T00:13:04.181Z,56.89
2022-08-22T00:14:04.200Z,56.79
2022-08-22T00:15:04.165Z,56.89
2022-08-22T00:16:04.206Z,56.79
2022-08-22T00:17:04.141Z,56.79
2022-08-22T00:18:05.666Z,56.70
2022-08-22T00:19:04.132Z,56.70
2022-08-22T00:20:04.131Z,56.59
2022-08-22T00:21:04.150Z,56.70
2022-08-22T00:22:04.085Z,56.70
2022-08-22T00:23:04.101Z,56.59
2022-08-22T00:24:04.058Z,56.49
2022-08-22T00:25:04.070Z,56.49
2022-08-22T00:26:04.035Z,56.40
2022-08-22T00:27:04.068Z,56.30
2022-08-22T00:28:04.053Z,56.30
2022-08-22T00:29:04.017Z,56.40
2022-08-22T00:30:04.019Z,56.40
2022-08-22T00:31:04.004Z,56.30
2022-08-22T00:32:04.000Z,56.40
2022-08-22T00:33:03.988Z,56.40
2022-08-22T00:34:03.969Z,56.40
2022-08-22T00:35:03.961Z,56.40
2022-08-22T00:36:03.947Z,56.30
2022-08-22T00:37:03.967Z,56.40
2022-08-22T00:38:03.953Z,56.40
2022-08-22T00:39:03.908Z,56.40
2022-08-22T00:40:04.000Z,56.30
2022-08-22T00:41:03.896Z,56.30
2022-08-22T00:42:03.875Z,56.30
2022-08-22T00:43:03.931Z,56.30
2022-08-22T00:44:03.907Z,56.30
2022-08-22T00:45:03.845Z,56.30
2022-08-22T00:46:03.846Z,56.30
2022-08-22T00:47:03.825Z,56.30
2022-08-22T00:48:03.899Z,56.20
2022-08-22T00:49:03.785Z,56.20
2022-08-22T00:50:03.809Z,56.20
2022-08-22T00:51:03.773Z,56.20
2022-08-22T00:52:03.782Z,56.10
2022-08-22T00:53:03.754Z,56.10
2022-08-22T00:54:03.803Z,56.20
2022-08-22T00:55:03.728Z,56.10
2022-08-22T00:56:03.715Z,56.10
2022-08-22T00:57:03.746Z,56.10
2022-08-22T00:58:03.694Z,56.00
2022-08-22T00:59:22.967Z,56.00
2022-08-22T01:00:04.699Z,56.00
2022-08-22T01:01:03.727Z,55.90
2022-08-22T01:02:03.654Z,55.90
2022-08-22T01:03:03.659Z,55.90
2022-08-22T01:04:03.652Z,55.90
2022-08-22T01:05:03.645Z,55.90
2022-08-22T01:06:03.623Z,56.00
2022-08-22T01:07:03.635Z,55.90
2022-08-22T01:08:03.585Z,55.90
2022-08-22T01:09:03.591Z,55.90
2022-08-22T01:10:03.588Z,55.90
2022-08-22T01:11:03.570Z,55.90
2022-08-22T01:12:03.560Z,55.80
2022-08-22T01:13:03.545Z,55.80
2022-08-22T01:14:03.513Z,55.80
2022-08-22T01:15:03.504Z,55.80
2022-08-22T01:16:03.529Z,55.80
2022-08-22T01:17:03.492Z,55.80
2022-08-22T01:18:03.508Z,55.70
2022-08-22T01:19:03.471Z,55.80
2022-08-22T01:20:03.497Z,55.70
2022-08-22T01:21:03.488Z,55.70
2022-08-22T01:22:03.448Z,55.70
2022-08-22T01:23:03.437Z,55.73
2022-08-22T01:24:03.425Z,55.60
2022-08-22T01:25:03.403Z,55.63
2022-08-22T01:26:03.384Z,55.73
2022-08-22T01:27:03.431Z,55.63
2022-08-22T01:28:03.373Z,55.63
2022-08-22T01:29:03.390Z,55.63
2022-08-22T01:30:03.393Z,55.53
2022-08-22T01:31:03.343Z,55.53
2022-08-22T01:32:03.323Z,55.53
2022-08-22T01:33:03.357Z,55.53
2022-08-22T01:34:03.293Z,55.53
2022-08-22T01:35:03.317Z,55.53
2022-08-22T01:36:03.272Z,55.43
2022-08-22T01:37:03.339Z,55.33
2022-08-22T01:38:03.266Z,55.33
2022-08-22T01:39:03.260Z,55.33
2022-08-22T01:40:03.297Z,55.33
2022-08-22T01:41:03.260Z,55.43
2022-08-22T01:42:03.216Z,55.43
2022-08-22T01:43:03.231Z,55.43
2022-08-22T01:44:03.197Z,55.43
2022-08-22T01:45:03.184Z,55.43
2022-08-22T01:46:03.196Z,55.43
2022-08-22T01:47:03.207Z,55.43
2022-08-22T01:48:03.144Z,55.33
2022-08-22T01:49:03.134Z,55.33
2022-08-22T01:50:03.113Z,55.33
2022-08-22T01:51:03.133Z,55.33
2022-08-22T01:52:03.108Z,55.33
2022-08-22T01:53:03.094Z,55.23
2022-08-22T01:54:03.089Z,55.23
2022-08-22T01:55:03.092Z,55.23
2022-08-22T01:56:03.093Z,55.23
2022-08-22T01:57:03.058Z,55.23
2022-08-22T01:58:03.033Z,55.23
2022-08-22T01:59:03.037Z,55.33
2022-08-22T02:00:03.023Z,55.33
2022-08-22T02:01:03.062Z,55.33
2022-08-22T02:02:03.014Z,55.33
2022-08-22T02:03:03.006Z,55.33
2022-08-22T02:04:03.087Z,55.23
2022-08-22T02:05:02.980Z,55.23
2022-08-22T02:06:02.964Z,55.23
2022-08-22T02:07:02.972Z,55.13
2022-08-22T02:08:02.947Z,55.23
2022-08-22T02:09:02.951Z,55.13
2022-08-22T02:10:02.916Z,55.13
2022-08-22T02:11:02.901Z,55.13
2022-08-22T02:12:02.901Z,55.23
2022-08-22T02:13:02.873Z,55.13
2022-08-22T02:14:02.895Z,55.13
2022-08-22T02:15:02.879Z,55.23
2022-08-22T02:16:02.833Z,55.13
2022-08-22T02:17:02.864Z,55.23
2022-08-22T02:18:02.812Z,55.23
2022-08-22T02:19:02.856Z,55.33
2022-08-22T02:20:02.804Z,55.23
2022-08-22T02:21:02.796Z,55.23
2022-08-22T02:22:02.777Z,55.23
2022-08-22T02:23:02.763Z,55.23
2022-08-22T02:24:02.756Z,55.23
2022-08-22T02:25:02.755Z,55.13
2022-08-22T02:26:03.722Z,55.23
2022-08-22T02:27:02.735Z,55.23
2022-08-22T02:28:02.715Z,55.23
2022-08-22T02:29:02.755Z,55.33
2022-08-22T02:30:02.699Z,55.33
2022-08-22T02:31:02.692Z,55.13
2022-08-22T02:32:02.695Z,55.23
2022-08-22T02:33:02.665Z,55.23
2022-08-22T02:34:02.633Z,55.23
2022-08-22T02:35:02.644Z,55.23
2022-08-22T02:36:02.612Z,55.23
2022-08-22T02:37:02.626Z,55.23
2022-08-22T02:38:02.602Z,55.23
2022-08-22T02:39:02.615Z,55.23
2022-08-22T02:40:02.695Z,55.13
2022-08-22T02:41:02.563Z,55.23
2022-08-22T02:42:02.560Z,55.23
2022-08-22T02:43:02.551Z,55.13
2022-08-22T02:44:02.539Z,55.23
2022-08-22T02:45:02.566Z,55.13
2022-08-22T02:46:02.502Z,55.13
2022-08-22T02:47:02.498Z,55.13
2022-08-22T02:48:02.484Z,55.23
2022-08-22T02:49:02.491Z,55.13
2022-08-22T02:50:02.472Z,55.13
2022-08-22T02:51:02.462Z,55.03
2022-08-22T02:52:02.458Z,55.03
2022-08-22T02:53:02.467Z,55.03
2022-08-22T02:54:02.437Z,55.13
2022-08-22T02:55:02.464Z,55.13
2022-08-22T02:56:02.415Z,55.23
2022-08-22T02:57:02.417Z,55.23
2022-08-22T02:58:02.397Z,55.23
2022-08-22T02:59:02.374Z,55.13
2022-08-22T03:00:02.371Z,55.13
2022-08-22T03:01:02.473Z,55.13
2022-08-22T03:02:02.364Z,55.13
2022-08-22T03:03:02.347Z,55.16
2022-08-22T03:04:02.335Z,55.16
2022-08-22T03:05:02.351Z,55.16
2022-08-22T03:06:02.325Z,55.16
2022-08-22T03:07:02.304Z,55.05
2022-08-22T03:08:02.304Z,55.05
2022-08-22T03:09:02.272Z,55.05
2022-08-22T03:10:02.255Z,54.96
2022-08-22T03:11:02.286Z,54.96
2022-08-22T03:12:02.265Z,55.05
2022-08-22T03:13:02.221Z,55.05
2022-08-22T03:14:02.216Z,54.96
2022-08-22T03:15:02.220Z,54.96
2022-08-22T03:16:02.193Z,54.96
2022-08-22T03:17:02.193Z,54.96
2022-08-22T03:18:02.216Z,54.96
2022-08-22T03:19:02.165Z,54.96
2022-08-22T03:20:02.134Z,54.96
2022-08-22T03:21:02.167Z,54.86
2022-08-22T03:22:02.116Z,54.75
2022-08-22T03:23:02.121Z,54.75
2022-08-22T03:24:02.130Z,54.86
2022-08-22T03:25:02.092Z,54.75
2022-08-22T03:26:02.134Z,54.86
2022-08-22T03:27:03.087Z,54.86
2022-08-22T03:28:02.308Z,54.75
2022-08-22T03:29:02.054Z,54.66
2022-08-22T03:30:02.067Z,54.75
2022-08-22T03:31:02.079Z,54.86
2022-08-22T03:32:02.012Z,54.75
2022-08-22T03:33:02.003Z,54.75
2022-08-22T03:34:02.002Z,54.86
2022-08-22T03:35:02.051Z,54.75
2022-08-22T03:36:01.975Z,54.86
2022-08-22T03:37:01.988Z,54.86
2022-08-22T03:38:01.964Z,54.86
2022-08-22T03:39:01.931Z,54.75
2022-08-22T03:40:01.998Z,54.86
2022-08-22T03:41:01.963Z,54.75
2022-08-22T03:42:01.912Z,54.75
2022-08-22T03:43:01.989Z,54.75
2022-08-22T03:44:01.897Z,54.66
2022-08-22T03:45:01.888Z,54.75
2022-08-22T03:46:01.853Z,54.86
2022-08-22T03:47:01.867Z,54.86
2022-08-22T03:48:01.834Z,54.75
2022-08-22T03:49:01.844Z,54.75
2022-08-22T03:50:01.816Z,54.86
2022-08-22T03:51:01.805Z,54.75
2022-08-22T03:52:01.780Z,54.75
2022-08-22T03:53:01.804Z,54.75
2022-08-22T03:54:01.785Z,54.75
2022-08-22T03:55:01.774Z,54.75
2022-08-22T03:56:01.775Z,54.86
2022-08-22T03:57:01.751Z,54.96
2022-08-22T03:58:01.736Z,54.96
2022-08-22T03:59:01.718Z,54.96
2022-08-22T04:00:02.710Z,54.86
2022-08-22T04:01:01.737Z,54.96
2022-08-22T04:02:01.690Z,54.96
2022-08-22T04:03:01.692Z,54.96
2022-08-22T04:04:01.672Z,54.86
2022-08-22T04:05:01.678Z,54.86
2022-08-22T04:06:01.656Z,54.96
2022-08-22T04:07:01.644Z,54.96
2022-08-22T04:08:01.635Z,54.96
2022-08-22T04:09:01.611Z,54.86
2022-08-22T04:10:01.602Z,54.86
2022-08-22T04:11:02.515Z,54.86
2022-08-22T04:12:01.584Z,54.96
2022-08-22T04:13:01.571Z,54.75
2022-08-22T04:14:01.552Z,54.86
2022-08-22T04:15:01.555Z,54.86
2022-08-22T04:16:01.532Z,54.86
2022-08-22T04:17:01.555Z,54.96
2022-08-22T04:18:01.529Z,54.86
2022-08-22T04:19:01.527Z,54.96
2022-08-22T04:20:01.505Z,54.86
2022-08-22T04:21:01.481Z,54.86
2022-08-22T04:22:01.504Z,54.86
2022-08-22T04:23:01.476Z,54.86
2022-08-22T04:24:01.454Z,54.86
2022-08-22T04:25:05.813Z,54.75
2022-08-22T04:26:10.766Z,54.75
2022-08-22T04:27:02.420Z,54.86
2022-08-22T04:28:01.399Z,54.75
2022-08-22T04:29:01.404Z,54.75
2022-08-22T04:30:01.397Z,54.75
2022-08-22T04:31:01.364Z,54.75
2022-08-22T04:32:01.358Z,54.75
2022-08-22T04:33:01.365Z,54.66
2022-08-22T04:34:01.358Z,54.75
2022-08-22T04:35:01.329Z,54.86
2022-08-22T04:36:01.334Z,54.75
2022-08-22T04:37:01.290Z,54.75
2022-08-22T04:38:01.320Z,54.86
2022-08-22T04:39:01.282Z,54.75
2022-08-22T04:40:01.385Z,54.75
2022-08-22T04:41:04.387Z,54.75
2022-08-22T04:42:28.733Z,54.75
2022-08-22T04:43:03.686Z,54.86
2022-08-22T04:44:01.253Z,54.88
2022-08-22T04:45:01.226Z,54.86
2022-08-22T04:46:01.189Z,54.86
2022-08-22T04:47:01.205Z,54.86
2022-08-22T04:48:01.262Z,54.86
2022-08-22T04:49:01.192Z,54.96
2022-08-22T04:50:01.422Z,54.96
2022-08-22T04:51:01.163Z,55.05
2022-08-22T04:52:01.134Z,55.05
2022-08-22T04:53:01.129Z,55.08
2022-08-22T04:54:01.143Z,55.16
2022-08-22T04:55:01.107Z,55.18
2022-08-22T04:56:05.291Z,55.16
2022-08-22T04:57:02.102Z,55.18
2022-08-22T04:58:01.073Z,55.18
2022-08-22T04:59:01.082Z,55.16
2022-08-22T05:00:01.068Z,55.18
2022-08-22T05:01:01.046Z,55.26
2022-08-22T05:02:01.141Z,55.28
2022-08-22T05:03:01.019Z,55.28
2022-08-22T05:04:01.018Z,55.28
2022-08-22T05:05:01.010Z,55.28
2022-08-22T05:06:01.008Z,55.28
2022-08-22T05:07:01.005Z,55.28
2022-08-22T05:08:01.102Z,55.28
2022-08-22T05:09:00.973Z,55.28
2022-08-22T05:10:00.952Z,55.28
2022-08-22T05:11:01.941Z,55.38
2022-08-22T05:12:00.935Z,55.38
2022-08-22T05:13:00.930Z,55.48
2022-08-22T05:14:00.892Z,55.48
2022-08-22T05:15:00.924Z,55.58
2022-08-22T05:16:00.888Z,55.58
2022-08-22T05:17:00.883Z,55.58
2022-08-22T05:18:00.883Z,55.68
2022-08-22T05:19:00.847Z,55.68
2022-08-22T05:20:00.861Z,55.68
2022-08-22T05:21:00.936Z,55.78
2022-08-22T05:22:01.044Z,55.78
2022-08-22T05:23:00.799Z,55.78
2022-08-22T05:24:00.803Z,55.78
2022-08-22T05:28:41.945Z,55.88
2022-08-22T05:29:41.937Z,55.88
2022-08-22T05:30:44.648Z,55.88
2022-08-22T05:31:41.928Z,55.88
2022-08-22T05:32:41.923Z,55.98
2022-08-22T05:33:41.896Z,55.98
2022-08-22T05:34:41.889Z,56.08
2022-08-22T05:35:44.909Z,56.08
2022-08-22T05:36:42.871Z,56.08
2022-08-22T05:37:41.851Z,56.08
2022-08-22T05:38:41.837Z,56.18
2022-08-22T05:39:41.866Z,56.18
2022-08-22T05:40:41.840Z,56.18
2022-08-22T05:41:41.837Z,56.18
2022-08-22T05:42:41.803Z,56.18
2022-08-22T05:43:41.806Z,56.27
2022-08-22T05:44:41.766Z,56.27
2022-08-22T05:45:41.756Z,56.27
2022-08-22T05:46:41.765Z,56.38
2022-08-22T05:47:41.745Z,56.38
2022-08-22T05:48:41.744Z,56.38
2022-08-22T05:49:41.728Z,56.38
2022-08-22T05:50:41.770Z,56.38
2022-08-22T05:51:41.754Z,56.48
2022-08-22T05:52:41.712Z,56.48
2022-08-22T05:53:41.681Z,56.48
2022-08-22T05:54:41.664Z,56.57
2022-08-22T05:55:41.646Z,56.57
2022-08-22T05:56:41.685Z,56.57
2022-08-22T05:57:41.649Z,56.57
2022-08-22T05:58:41.639Z,56.68
2022-08-22T05:59:41.608Z,56.68
2022-08-22T06:00:41.596Z,56.68
2022-08-22T06:01:41.660Z,56.77
2022-08-22T06:02:41.589Z,56.75
2022-08-22T06:03:41.601Z,56.77
2022-08-22T06:04:41.555Z,56.75
2022-08-22T06:05:41.555Z,56.87
2022-08-22T06:06:41.534Z,56.87
2022-08-22T06:07:41.523Z,56.87
2022-08-22T06:08:41.504Z,56.87
2022-08-22T06:09:41.542Z,56.98
2022-08-22T06:10:41.500Z,56.98
2022-08-22T06:11:41.475Z,56.98
2022-08-22T06:12:43.156Z,57.07
2022-08-22T06:13:41.759Z,57.07
2022-08-22T06:14:41.473Z,57.07
2022-08-22T06:15:41.441Z,57.07
2022-08-22T06:16:47.400Z,57.17
2022-08-22T06:17:42.434Z,57.17
2022-08-22T06:18:41.410Z,57.17
2022-08-22T06:19:41.418Z,57.28
2022-08-22T06:20:41.414Z,57.28
2022-08-22T06:21:41.360Z,57.28
2022-08-22T06:22:41.367Z,57.28
2022-08-22T06:23:41.342Z,57.28
2022-08-22T06:24:41.426Z,57.28
2022-08-22T06:25:41.331Z,57.37
2022-08-22T06:26:41.327Z,57.37
2022-08-22T06:27:41.293Z,57.37
2022-08-22T06:28:54.492Z,57.47
2022-08-22T06:29:42.264Z,57.47
2022-08-22T06:30:41.291Z,57.47
2022-08-22T06:31:41.286Z,57.47
2022-08-22T06:32:58.480Z,57.57
2022-08-22T06:33:45.479Z,57.57
2022-08-22T06:34:41.223Z,57.67
2022-08-22T06:35:41.204Z,57.67
2022-08-22T06:36:41.226Z,57.67
2022-08-22T06:37:41.316Z,57.67
2022-08-22T06:38:41.181Z,57.77
2022-08-22T06:39:41.193Z,57.77
2022-08-22T06:40:41.155Z,57.77
2022-08-22T06:41:41.157Z,57.77
2022-08-22T06:42:41.187Z,57.77
2022-08-22T06:43:41.145Z,57.77
2022-08-22T06:44:41.127Z,57.87
2022-08-22T06:45:41.113Z,57.87
2022-08-22T06:46:41.129Z,57.97
2022-08-22T06:47:41.087Z,57.97
2022-08-22T06:48:41.089Z,57.97
2022-08-22T06:49:41.053Z,57.97
2022-08-22T06:50:41.043Z,58.07
2022-08-22T06:51:41.048Z,58.07
2022-08-22T06:52:41.046Z,58.17
2022-08-22T06:53:47.829Z,58.17
2022-08-22T06:54:42.019Z,58.17
2022-08-22T06:55:41.053Z,58.17
2022-08-22T06:56:40.981Z,58.27
2022-08-22T06:57:40.972Z,58.27
2022-08-22T06:58:40.969Z,58.27
2022-08-22T06:59:40.944Z,58.27
2022-08-22T07:00:40.967Z,58.37
2022-08-22T07:01:40.954Z,58.47
2022-08-22T07:02:40.923Z,58.47
2022-08-22T07:03:40.897Z,58.47
2022-08-22T07:04:40.892Z,58.57
2022-08-22T07:05:40.872Z,58.57
2022-08-22T07:06:40.897Z,58.67
2022-08-22T07:07:40.866Z,58.67
2022-08-22T07:08:40.873Z,58.76
2022-08-22T07:09:40.837Z,58.76
2022-08-22T07:10:40.831Z,58.76
2022-08-22T07:11:40.848Z,58.76
2022-08-22T07:12:40.802Z,58.87
2022-08-22T07:13:40.786Z,58.97
2022-08-22T07:14:40.799Z,58.97
2022-08-22T07:15:40.811Z,59.06
2022-08-22T07:16:40.796Z,59.06
2022-08-22T07:17:40.777Z,59.06
2022-08-22T07:18:40.787Z,59.06
2022-08-22T07:19:40.727Z,59.06
2022-08-22T07:20:40.721Z,59.06
2022-08-22T07:21:40.712Z,59.17
2022-08-22T07:22:40.731Z,59.27
2022-08-22T07:23:40.706Z,59.27
2022-08-22T07:24:40.687Z,59.27
2022-08-22T07:25:40.676Z,59.27
2022-08-22T07:26:40.664Z,59.36
2022-08-22T07:27:40.665Z,59.47
2022-08-22T07:28:51.280Z,59.56
2022-08-22T07:29:41.633Z,59.77
2022-08-22T07:30:40.816Z,59.77
2022-08-22T07:31:40.649Z,59.77
2022-08-22T07:32:40.602Z,59.86
2022-08-22T07:33:40.564Z,59.86
2022-08-22T07:34:40.564Z,59.86
2022-08-22T07:35:40.563Z,59.96
2022-08-22T07:36:40.611Z,60.06
2022-08-22T07:37:40.555Z,59.96
2022-08-22T07:38:40.512Z,59.96
2022-08-22T07:39:40.592Z,60.06
2022-08-22T07:40:40.492Z,60.06
2022-08-22T07:41:40.545Z,60.06
2022-08-22T07:42:40.465Z,60.16
2022-08-22T07:43:40.460Z,60.16
2022-08-22T07:44:40.505Z,60.16
2022-08-22T07:45:40.455Z,60.26
2022-08-22T07:46:40.424Z,60.26
2022-08-22T07:47:40.436Z,60.36
2022-08-22T07:48:59.331Z,60.36
2022-08-22T07:49:49.623Z,60.36
2022-08-22T07:50:41.395Z,60.36
2022-08-22T07:51:40.393Z,60.36
2022-08-22T07:52:40.375Z,60.56
2022-08-22T07:53:40.365Z,60.46
2022-08-22T07:54:40.379Z,60.46
2022-08-22T07:55:49.291Z,60.46
2022-08-22T07:56:41.314Z,60.46
2022-08-22T07:57:40.339Z,60.46
2022-08-22T07:58:40.308Z,60.46
2022-08-22T07:59:40.306Z,60.56
2022-08-22T08:00:40.320Z,60.56
2022-08-22T08:01:40.381Z,60.56
2022-08-22T08:02:40.257Z,60.56
2022-08-22T08:03:40.295Z,60.56
2022-08-22T08:04:40.778Z,60.56
2022-08-22T08:05:40.239Z,60.46
2022-08-22T08:06:40.232Z,60.56
2022-08-22T08:07:40.215Z,60.56
2022-08-22T08:08:40.195Z,60.46
2022-08-22T08:09:40.181Z,60.46
2022-08-22T08:10:40.248Z,60.46
2022-08-22T08:11:40.159Z,60.56
2022-08-22T08:12:40.169Z,60.86
2022-08-22T08:13:40.157Z,60.86
2022-08-22T08:14:40.138Z,60.86
2022-08-22T08:15:40.111Z,60.86
2022-08-22T08:16:40.112Z,60.96
2022-08-22T08:17:40.097Z,60.96
2022-08-22T08:18:40.080Z,61.06
2022-08-22T08:19:40.080Z,61.06
2022-08-22T08:20:40.096Z,61.06
2022-08-22T08:21:40.063Z,61.25
2022-08-22T08:22:40.165Z,61.36
2022-08-22T08:23:40.367Z,61.36
2022-08-22T08:24:40.947Z,61.46
2022-08-22T08:25:40.010Z,61.36
2022-08-22T08:26:40.152Z,61.25
2022-08-22T08:27:39.997Z,61.06
2022-08-22T08:28:40.280Z,61.06
2022-08-22T08:29:40.112Z,60.96
2022-08-22T08:30:40.090Z,60.86
2022-08-22T08:31:44.727Z,60.86
2022-08-22T08:32:41.231Z,60.76
2022-08-22T08:33:39.924Z,60.76
2022-08-22T08:34:39.912Z,60.66
2022-08-22T08:36:02.010Z,60.66
2022-08-22T08:36:40.956Z,60.56
2022-08-22T08:37:39.894Z,60.46
2022-08-22T08:38:39.861Z,60.46
2022-08-22T08:39:39.924Z,60.46
2022-08-22T08:40:39.840Z,60.46
2022-08-22T08:41:39.828Z,60.46
2022-08-22T08:42:39.829Z,60.36
2022-08-22T08:43:39.848Z,60.36
2022-08-22T08:44:39.813Z,60.36
2022-08-22T08:45:39.814Z,60.26
2022-08-22T08:46:39.770Z,60.26
2022-08-22T08:47:39.966Z,60.26
2022-08-22T08:48:39.753Z,60.36
2022-08-22T08:49:42.881Z,60.26
2022-08-22T08:50:39.893Z,60.26
2022-08-22T08:51:39.752Z,60.26
2022-08-22T08:52:39.969Z,60.16
2022-08-22T08:53:42.913Z,60.16
2022-08-22T08:54:39.771Z,60.16
2022-08-22T08:55:39.683Z,60.16
2022-08-22T08:56:39.934Z,60.06
2022-08-22T08:57:40.809Z,60.06
2022-08-22T08:58:39.698Z,60.06
2022-08-22T08:59:42.431Z,59.96
2022-08-22T09:00:41.028Z,59.96
2022-08-22T09:01:39.702Z,59.96
2022-08-22T09:02:42.432Z,59.96
2022-08-22T09:03:40.180Z,59.96
2022-08-22T09:04:39.559Z,59.86
2022-08-22T09:05:39.571Z,59.86
2022-08-22T09:06:42.576Z,59.86
2022-08-22T09:07:39.537Z,59.86
2022-08-22T09:08:39.566Z,59.96
2022-08-22T09:09:39.550Z,59.96
2022-08-22T09:10:39.535Z,60.06
2022-08-22T09:11:39.511Z,60.06
2022-08-22T09:12:43.396Z,60.16
2022-08-22T09:13:40.826Z,60.26
2022-08-22T09:14:39.472Z,60.46
2022-08-22T09:15:40.474Z,60.46
2022-08-22T09:16:45.096Z,60.66
2022-08-22T09:17:40.439Z,60.66
2022-08-22T09:18:39.418Z,60.76
2022-08-22T09:19:39.439Z,60.76
2022-08-22T09:20:39.402Z,60.76
2022-08-22T09:21:39.404Z,60.86
2022-08-22T09:22:50.771Z,60.76
2022-08-22T09:23:40.413Z,60.76
2022-08-22T09:24:39.351Z,60.66
2022-08-22T09:25:40.478Z,60.66
2022-08-22T09:26:39.453Z,60.66
2022-08-22T09:27:39.331Z,60.66
2022-08-22T09:28:39.309Z,60.76
2022-08-22T09:29:54.962Z,60.76
2022-08-22T09:30:40.296Z,60.86
2022-08-22T09:31:48.239Z,60.86
2022-08-22T09:32:40.269Z,60.96
2022-08-22T09:33:39.278Z,60.96
2022-08-22T09:34:39.257Z,60.96
2022-08-22T09:35:39.242Z,60.96
2022-08-22T09:36:39.222Z,60.96
2022-08-22T09:37:39.205Z,61.06
2022-08-22T09:38:39.224Z,61.06
2022-08-22T09:39:40.241Z,61.06
2022-08-22T09:40:39.168Z,61.16
2022-08-22T09:41:39.186Z,61.16
2022-08-22T09:42:39.182Z,61.16
2022-08-22T09:43:44.112Z,61.25
2022-08-22T09:44:40.152Z,61.25
2022-08-22T09:45:39.122Z,61.36
2022-08-22T09:46:39.120Z,61.46
2022-08-22T09:47:39.288Z,61.46
2022-08-22T09:48:39.103Z,61.36
2022-08-22T09:49:39.076Z,61.46
2022-08-22T09:50:39.091Z,61.55
2022-08-22T09:51:39.067Z,61.55
2022-08-22T09:52:39.051Z,61.66
2022-08-22T09:53:39.051Z,61.66
2022-08-22T09:54:39.061Z,61.66
2022-08-22T09:55:39.017Z,61.66
2022-08-22T09:56:39.013Z,61.63
2022-08-22T09:57:39.009Z,61.66
2022-08-22T09:58:40.842Z,61.76
2022-08-22T09:59:38.968Z,61.66
2022-08-22T10:00:38.961Z,61.63
2022-08-22T10:01:39.036Z,61.63
2022-08-22T10:02:43.685Z,61.63
2022-08-22T10:03:38.921Z,61.63
2022-08-22T10:04:38.909Z,61.63
2022-08-22T10:05:43.593Z,61.63
2022-08-22T10:06:39.888Z,61.53
2022-08-22T10:07:38.900Z,61.43
2022-08-22T10:08:38.857Z,61.43
2022-08-22T10:09:38.871Z,61.43
2022-08-22T10:10:38.848Z,61.33
2022-08-22T10:11:39.044Z,61.33
2022-08-22T10:12:38.825Z,61.33
2022-08-22T10:13:39.817Z,61.33
2022-08-22T10:14:38.811Z,61.33
2022-08-22T10:15:38.810Z,61.33
2022-08-22T10:16:38.790Z,61.33
2022-08-22T10:17:41.338Z,61.33
2022-08-22T10:18:52.497Z,61.23
2022-08-22T10:19:40.150Z,61.23
2022-08-22T10:20:38.728Z,61.23
2022-08-22T10:21:39.781Z,61.23
2022-08-22T10:22:39.094Z,61.23
2022-08-22T10:23:38.752Z,61.23
2022-08-22T10:24:44.129Z,61.13
2022-08-22T10:25:41.719Z,61.03
2022-08-22T10:26:39.102Z,61.03
2022-08-22T10:27:38.657Z,60.93
2022-08-22T10:28:38.636Z,60.93
2022-08-22T10:29:39.800Z,60.93
2022-08-22T10:30:38.629Z,60.93
2022-08-22T10:31:45.038Z,60.93
2022-08-22T10:32:39.612Z,61.03
2022-08-22T10:33:39.715Z,61.03
2022-08-22T10:34:38.610Z,61.13
2022-08-22T10:35:38.610Z,61.13
2022-08-22T10:36:38.557Z,61.13
2022-08-22T10:37:39.590Z,61.13
2022-08-22T10:38:46.350Z,61.13
2022-08-22T10:39:39.557Z,61.23
2022-08-22T10:40:38.519Z,61.23
2022-08-22T10:41:38.600Z,61.23
2022-08-22T10:42:38.502Z,61.23
2022-08-22T10:43:38.478Z,61.33
2022-08-22T10:44:38.466Z,61.43
2022-08-22T10:45:38.460Z,61.43
2022-08-22T10:46:38.913Z,61.53
2022-08-22T10:47:38.460Z,61.43
2022-08-22T10:48:38.416Z,61.63
2022-08-22T10:49:38.413Z,61.72
2022-08-22T10:50:38.401Z,61.72
2022-08-22T10:51:38.837Z,61.72
2022-08-22T10:52:38.378Z,61.83
2022-08-22T10:53:38.392Z,61.93
2022-08-22T10:54:38.359Z,62.02
2022-08-22T10:55:38.338Z,62.02
2022-08-22T10:56:38.339Z,62.13
2022-08-22T10:57:38.350Z,62.13
2022-08-22T10:58:38.329Z,62.13
2022-08-22T10:59:38.330Z,62.02
2022-08-22T11:00:38.440Z,62.02
2022-08-22T11:01:42.172Z,62.02
2022-08-22T11:02:38.286Z,61.99
2022-08-22T11:03:38.283Z,62.02
2022-08-22T11:04:38.261Z,61.99
2022-08-22T11:05:38.253Z,62.02
2022-08-22T11:06:38.219Z,62.13
2022-08-22T11:07:38.218Z,62.10
2022-08-22T11:08:38.225Z,62.10
2022-08-22T11:09:38.210Z,61.99
2022-08-22T11:10:38.201Z,62.10
2022-08-22T11:11:38.189Z,61.99
2022-08-22T11:12:41.786Z,62.10
2022-08-22T11:13:38.169Z,61.99
2022-08-22T11:14:38.337Z,62.10
2022-08-22T11:15:38.142Z,61.99
2022-08-22T11:16:41.745Z,61.90
2022-08-22T11:17:41.705Z,61.90
2022-08-22T11:18:39.114Z,61.80
2022-08-22T11:19:38.077Z,61.69
2022-08-22T11:20:38.101Z,61.80
2022-08-22T11:21:38.071Z,61.80
2022-08-22T11:22:38.061Z,61.90
2022-08-22T11:23:38.051Z,61.80
2022-08-22T11:24:55.913Z,61.69
2022-08-22T11:25:39.291Z,61.60
2022-08-22T11:26:47.377Z,61.60
2022-08-22T11:27:40.148Z,61.60
2022-08-22T11:28:37.990Z,61.60
2022-08-22T11:29:38.446Z,61.40
2022-08-22T11:30:44.567Z,61.30
2022-08-22T11:31:38.963Z,61.10
2022-08-22T11:32:38.933Z,61.10
2022-08-22T11:33:47.419Z,61.00
2022-08-22T11:34:38.915Z,61.10
2022-08-22T11:35:37.921Z,61.20
2022-08-22T11:36:37.920Z,61.20
2022-08-22T11:37:42.830Z,61.20
2022-08-22T11:38:38.892Z,61.20
2022-08-22T11:39:37.904Z,61.00
2022-08-22T11:40:37.870Z,61.00
2022-08-22T11:41:37.841Z,61.10
2022-08-22T11:42:47.706Z,61.10
2022-08-22T11:43:39.361Z,61.00
2022-08-22T11:44:50.437Z,60.90
2022-08-22T11:45:38.812Z,60.90
2022-08-22T11:46:37.829Z,61.00
2022-08-22T11:47:37.792Z,60.90
2022-08-22T11:48:37.773Z,60.90
2022-08-22T11:49:37.749Z,60.90
2022-08-22T11:50:37.759Z,61.00
2022-08-22T11:51:37.793Z,60.90
2022-08-22T11:52:37.947Z,60.90
2022-08-22T11:53:37.752Z,60.80
2022-08-22T11:54:37.712Z,60.80
2022-08-22T11:55:37.702Z,60.70
2022-08-22T11:56:37.784Z,60.70
2022-08-22T11:57:38.110Z,60.70
2022-08-22T11:58:38.003Z,60.70
2022-08-22T11:59:40.165Z,60.70
2022-08-22T12:00:38.644Z,60.70
2022-08-22T12:01:37.940Z,60.70
2022-08-22T12:02:37.624Z,60.70
2022-08-22T12:03:37.613Z,60.60
2022-08-22T12:04:37.596Z,60.60
2022-08-22T12:05:38.568Z,60.60
2022-08-22T12:06:37.563Z,60.60
2022-08-22T12:07:37.548Z,60.50
2022-08-22T12:08:37.562Z,60.30
2022-08-22T12:09:37.927Z,60.21
2022-08-22T12:10:37.543Z,60.21
2022-08-22T12:11:37.521Z,60.21
2022-08-22T12:12:37.513Z,60.30
2022-08-22T12:13:37.557Z,60.40
2022-08-22T12:14:37.497Z,60.40
2022-08-22T12:15:37.485Z,60.70
2022-08-22T12:16:37.474Z,60.50
2022-08-22T12:17:55.896Z,60.50
2022-08-22T12:18:38.528Z,60.50
2022-08-22T12:19:42.100Z,60.50
2022-08-22T12:20:38.440Z,60.50
2022-08-22T12:21:38.565Z,60.60
2022-08-22T12:22:37.392Z,60.60
2022-08-22T12:23:49.012Z,60.70
2022-08-22T12:24:38.381Z,60.70
2022-08-22T12:25:37.352Z,60.40
2022-08-22T12:26:38.363Z,60.21
2022-08-22T12:27:37.342Z,60.00
2022-08-22T12:28:37.321Z,59.91
2022-08-22T12:29:44.784Z,59.81
2022-08-22T12:30:38.312Z,59.70
2022-08-22T12:31:37.305Z,59.81
2022-08-22T12:32:37.300Z,59.81
2022-08-22T12:33:37.249Z,59.81
2022-08-22T12:34:37.315Z,59.81
2022-08-22T12:35:37.256Z,59.81
2022-08-22T12:36:37.378Z,59.70
2022-08-22T12:37:44.932Z,59.70
2022-08-22T12:38:38.256Z,59.70
2022-08-22T12:39:37.411Z,59.70
2022-08-22T12:40:37.257Z,59.70
2022-08-22T12:41:38.192Z,59.81
2022-08-22T12:42:37.162Z,59.81
2022-08-22T12:43:39.898Z,59.70
2022-08-22T12:44:38.182Z,59.81
2022-08-22T12:45:37.302Z,59.91
2022-08-22T12:46:37.267Z,60.00
2022-08-22T12:47:38.123Z,60.11
2022-08-22T12:48:37.175Z,60.21
2022-08-22T12:49:37.098Z,60.30
2022-08-22T12:50:37.069Z,60.30